sensor_id;sensor_type;location;lat;lon;timestamp;pressure;altitude;pressure_sealevel;temperature;humidity
71697;BME280;68167;59.120;37.898;2023-10-13T00:01:48;97519.06;;;6.85;79.72
71697;BME280;68167;59.120;37.898;2023-10-13T00:04:18;97584.66;;;7.34;79.69
71697;BME280;68167;59.120;37.898;2023-10-13T00:06:51;97537.53;;;7.04;79.13
71697;BME280;68167;59.120;37.898;2023-10-13T00:09:19;97588.66;;;7.32;79.03
71697;BME280;68167;59.120;37.898;2023-10-13T00:11:52;97586.38;;;7.25;79.55
71697;BME280;68167;59.120;37.898;2023-10-13T00:14:20;97548.78;;;6.96;79.55
71697;BME280;68167;59.120;37.898;2023-10-13T00:16:51;97540.91;;;6.90;79.24
71697;BME280;68167;59.120;37.898;2023-10-13T00:19:31;97568.13;;;7.10;79.47
71697;BME280;68167;59.120;37.898;2023-10-13T00:22:23;97574.72;;;7.12;79.63
71697;BME280;68167;59.120;37.898;2023-10-13T00:24:50;97561.56;;;7.07;79.62
71697;BME280;68167;59.120;37.898;2023-10-13T00:27:19;97551.97;;;7.11;79.35
71697;BME280;68167;59.120;37.898;2023-10-13T00:29:57;97575.31;;;7.23;78.97
71697;BME280;68167;59.120;37.898;2023-10-13T00:32:47;97588.16;;;7.30;79.81
71697;BME280;68167;59.120;37.898;2023-10-13T00:35:21;97596.41;;;7.28;79.10
71697;BME280;68167;59.120;37.898;2023-10-13T00:38:08;97529.28;;;6.91;79.85
71697;BME280;68167;59.120;37.898;2023-10-13T00:40:40;97564.13;;;7.12;79.94
71697;BME280;68167;59.120;37.898;2023-10-13T00:43:08;97558.22;;;7.02;79.60
71697;BME280;68167;59.120;37.898;2023-10-13T00:45:44;97570.50;;;7.11;79.88
71697;BME280;68167;59.120;37.898;2023-10-13T00:48:14;97544.06;;;6.92;79.74
71697;BME280;68167;59.120;37.898;2023-10-13T00:50:42;97545.34;;;6.95;79.57
71697;BME280;68167;59.120;37.898;2023-10-13T00:53:11;97560.28;;;7.05;79.41
71697;BME280;68167;59.120;37.898;2023-10-13T00:55:38;97573.13;;;7.11;79.98
71697;BME280;68167;59.120;37.898;2023-10-13T00:58:08;97585.38;;;7.21;80.17
71697;BME280;68167;59.120;37.898;2023-10-13T01:00:39;97583.13;;;7.14;80.05
71697;BME280;68167;59.120;37.898;2023-10-13T01:03:14;97600.97;;;7.22;79.99
71697;BME280;68167;59.120;37.898;2023-10-13T01:05:42;97584.44;;;6.98;79.89
71697;BME280;68167;59.120;37.898;2023-10-13T01:08:08;97554.78;;;6.82;80.09
71697;BME280;68167;59.120;37.898;2023-10-13T01:10:36;97582.00;;;7.02;79.64
71697;BME280;68167;59.120;37.898;2023-10-13T01:13:03;97590.94;;;7.06;80.33
71697;BME280;68167;59.120;37.898;2023-10-13T01:15:30;97588.59;;;7.04;80.32
71697;BME280;68167;59.120;37.898;2023-10-13T01:18:09;97611.47;;;7.14;80.23
71697;BME280;68167;59.120;37.898;2023-10-13T01:20:38;97528.00;;;6.70;79.56
71697;BME280;68167;59.120;37.898;2023-10-13T01:23:18;97521.34;;;6.73;80.45
71697;BME280;68167;59.120;37.898;2023-10-13T01:25:45;97597.47;;;7.27;80.34
71697;BME280;68167;59.120;37.898;2023-10-13T01:28:12;97592.47;;;7.25;79.98
71697;BME280;68167;59.120;37.898;2023-10-13T01:30:44;97552.72;;;6.98;79.68
71697;BME280;68167;59.120;37.898;2023-10-13T01:33:17;97567.91;;;7.06;79.97
71697;BME280;68167;59.120;37.898;2023-10-13T01:35:43;97579.81;;;7.22;80.02
71697;BME280;68167;59.120;37.898;2023-10-13T01:38:14;97594.75;;;7.32;80.07
71697;BME280;68167;59.120;37.898;2023-10-13T01:40:40;97571.94;;;7.17;80.52
71697;BME280;68167;59.120;37.898;2023-10-13T01:43:08;97602.38;;;7.34;80.10
71697;BME280;68167;59.120;37.898;2023-10-13T01:45:37;97648.03;;;7.25;80.11
71697;BME280;68167;59.120;37.898;2023-10-13T01:48:16;97575.44;;;6.61;79.87
71697;BME280;68167;59.120;37.898;2023-10-13T01:50:44;97593.59;;;6.68;80.41
71697;BME280;68167;59.120;37.898;2023-10-13T01:53:14;97612.50;;;6.56;81.17
71697;BME280;68167;59.120;37.898;2023-10-13T01:55:43;97599.72;;;6.45;81.34
71697;BME280;68167;59.120;37.898;2023-10-13T01:58:11;97610.63;;;6.38;80.97
71697;BME280;68167;59.120;37.898;2023-10-13T02:00:49;97624.97;;;6.32;81.46
71697;BME280;68167;59.120;37.898;2023-10-13T02:03:15;97593.16;;;5.94;82.23
71697;BME280;68167;59.120;37.898;2023-10-13T02:05:43;97614.19;;;6.05;81.90
71697;BME280;68167;59.120;37.898;2023-10-13T02:10:58;97630.19;;;6.13;81.90
71697;BME280;68167;59.120;37.898;2023-10-13T02:13:28;97548.41;;;5.55;82.50
71697;BME280;68167;59.120;37.898;2023-10-13T02:15:57;97613.44;;;5.99;82.62
71697;BME280;68167;59.120;37.898;2023-10-13T02:18:26;97638.19;;;6.08;82.84
71697;BME280;68167;59.120;37.898;2023-10-13T02:20:54;97635.88;;;6.02;82.86
71697;BME280;68167;59.120;37.898;2023-10-13T02:23:25;97622.06;;;5.81;82.97
71697;BME280;68167;59.120;37.898;2023-10-13T02:25:56;97649.69;;;5.93;82.84
71697;BME280;68167;59.120;37.898;2023-10-13T02:28:37;97647.88;;;5.89;83.48
71697;BME280;68167;59.120;37.898;2023-10-13T02:31:03;97599.00;;;5.62;83.80
71697;BME280;68167;59.120;37.898;2023-10-13T02:33:30;97652.00;;;6.00;83.95
71697;BME280;68167;59.120;37.898;2023-10-13T02:36:03;97621.81;;;5.82;83.75
71697;BME280;68167;59.120;37.898;2023-10-13T02:38:32;97617.06;;;5.79;84.16
71697;BME280;68167;59.120;37.898;2023-10-13T02:41:17;97651.16;;;6.05;84.14
71697;BME280;68167;59.120;37.898;2023-10-13T02:44:07;97577.13;;;5.62;84.24
71697;BME280;68167;59.120;37.898;2023-10-13T02:46:42;97586.63;;;5.63;84.21
71697;BME280;68167;59.120;37.898;2023-10-13T02:49:10;97657.63;;;6.17;84.33
71697;BME280;68167;59.120;37.898;2023-10-13T02:51:37;97662.31;;;6.25;84.43
71697;BME280;68167;59.120;37.898;2023-10-13T02:54:10;97669.34;;;6.35;84.70
71697;BME280;68167;59.120;37.898;2023-10-13T02:56:38;97664.03;;;6.35;84.52
71697;BME280;68167;59.120;37.898;2023-10-13T02:59:24;97606.31;;;6.00;84.17
71697;BME280;68167;59.120;37.898;2023-10-13T03:02:09;97650.59;;;6.32;84.29
71697;BME280;68167;59.120;37.898;2023-10-13T03:04:46;97626.66;;;6.23;84.22
71697;BME280;68167;59.120;37.898;2023-10-13T03:07:13;97646.16;;;6.27;84.49
71697;BME280;68167;59.120;37.898;2023-10-13T03:09:49;97687.53;;;6.60;84.52
71697;BME280;68167;59.120;37.898;2023-10-13T03:12:19;97608.78;;;6.15;84.33
71697;BME280;68167;59.120;37.898;2023-10-13T03:14:47;97596.94;;;6.12;83.87
71697;BME280;68167;59.120;37.898;2023-10-13T03:17:24;97701.41;;;6.71;83.62
71697;BME280;68167;59.120;37.898;2023-10-13T03:20:00;97687.47;;;6.66;83.77
71697;BME280;68167;59.120;37.898;2023-10-13T03:22:27;97647.69;;;6.33;83.27
71697;BME280;68167;59.120;37.898;2023-10-13T03:25:00;97665.00;;;6.44;83.78
71697;BME280;68167;59.120;37.898;2023-10-13T03:27:31;97675.66;;;6.58;83.28
71697;BME280;68167;59.120;37.898;2023-10-13T03:30:22;97672.78;;;6.54;83.15
71697;BME280;68167;59.120;37.898;2023-10-13T03:32:56;97668.50;;;6.40;82.97
71697;BME280;68167;59.120;37.898;2023-10-13T03:35:24;97662.69;;;6.38;83.19
71697;BME280;68167;59.120;37.898;2023-10-13T03:37:52;97698.09;;;6.60;82.94
71697;BME280;68167;59.120;37.898;2023-10-13T03:40:19;97696.78;;;6.39;82.60
71697;BME280;68167;59.120;37.898;2023-10-13T03:42:57;97693.66;;;6.56;82.82
71697;BME280;68167;59.120;37.898;2023-10-13T03:45:27;97637.00;;;6.19;82.41
71697;BME280;68167;59.120;37.898;2023-10-13T03:47:56;97710.97;;;6.67;82.62
71697;BME280;68167;59.120;37.898;2023-10-13T03:50:23;97688.38;;;6.56;82.32
71697;BME280;68167;59.120;37.898;2023-10-13T03:52:58;97733.31;;;6.80;82.32
71697;BME280;68167;59.120;37.898;2023-10-13T03:55:26;97744.81;;;6.89;82.08
71697;BME280;68167;59.120;37.898;2023-10-13T03:57:56;97688.75;;;6.68;81.63
71697;BME280;68167;59.120;37.898;2023-10-13T04:00:25;97731.94;;;6.82;82.17
71697;BME280;68167;59.120;37.898;2023-10-13T04:02:54;97692.81;;;6.60;81.71
71697;BME280;68167;59.120;37.898;2023-10-13T04:05:33;97717.03;;;6.68;81.49
71697;BME280;68167;59.120;37.898;2023-10-13T04:08:05;97696.53;;;6.59;81.98
71697;BME280;68167;59.120;37.898;2023-10-13T04:10:57;97750.63;;;6.91;81.74
71697;BME280;68167;59.120;37.898;2023-10-13T04:13:24;97764.34;;;6.93;81.55
71697;BME280;68167;59.120;37.898;2023-10-13T04:16:09;97777.56;;;6.93;81.05
71697;BME280;68167;59.120;37.898;2023-10-13T04:19:02;97758.84;;;6.89;80.41
71697;BME280;68167;59.120;37.898;2023-10-13T04:21:28;97768.00;;;6.97;80.55
71697;BME280;68167;59.120;37.898;2023-10-13T04:24:22;97702.50;;;6.46;81.02
71697;BME280;68167;59.120;37.898;2023-10-13T04:27:04;97784.84;;;6.82;80.81
71697;BME280;68167;59.120;37.898;2023-10-13T04:29:56;97793.28;;;6.84;80.68
71697;BME280;68167;59.120;37.898;2023-10-13T04:32:34;97738.16;;;6.49;81.10
71697;BME280;68167;59.120;37.898;2023-10-13T04:35:12;97798.84;;;6.83;80.63
71697;BME280;68167;59.120;37.898;2023-10-13T04:37:39;97801.81;;;6.76;80.88
71697;BME280;68167;59.120;37.898;2023-10-13T04:40:25;97786.63;;;6.63;81.06
71697;BME280;68167;59.120;37.898;2023-10-13T04:42:52;97814.25;;;6.76;80.57
71697;BME280;68167;59.120;37.898;2023-10-13T04:45:31;97828.72;;;6.83;80.27
71697;BME280;68167;59.120;37.898;2023-10-13T04:48:01;97787.44;;;6.58;80.54
71697;BME280;68167;59.120;37.898;2023-10-13T04:50:40;97803.78;;;6.66;80.76
71697;BME280;68167;59.120;37.898;2023-10-13T04:53:14;97802.53;;;6.58;79.70
71697;BME280;68167;59.120;37.898;2023-10-13T04:56:00;97838.56;;;6.78;79.83
71697;BME280;68167;59.120;37.898;2023-10-13T04:58:30;97835.13;;;6.77;80.20
71697;BME280;68167;59.120;37.898;2023-10-13T05:01:00;97794.66;;;6.53;79.93
71697;BME280;68167;59.120;37.898;2023-10-13T05:03:45;97816.28;;;6.55;79.71
71697;BME280;68167;59.120;37.898;2023-10-13T05:06:31;97842.88;;;6.69;80.00
71697;BME280;68167;59.120;37.898;2023-10-13T05:09:11;97866.84;;;6.77;79.63
71697;BME280;68167;59.120;37.898;2023-10-13T05:11:57;97887.69;;;6.84;79.99
71697;BME280;68167;59.120;37.898;2023-10-13T05:14:43;97871.34;;;6.77;79.39
71697;BME280;68167;59.120;37.898;2023-10-13T05:17:33;97844.88;;;6.53;79.60
71697;BME280;68167;59.120;37.898;2023-10-13T05:20:18;97904.09;;;6.81;79.28
71697;BME280;68167;59.120;37.898;2023-10-13T05:23:03;97914.63;;;6.86;78.45
71697;BME280;68167;59.120;37.898;2023-10-13T05:25:48;97835.50;;;6.37;78.48
71697;BME280;68167;59.120;37.898;2023-10-13T05:28:32;97915.16;;;6.88;78.71
71697;BME280;68167;59.120;37.898;2023-10-13T05:31:17;97894.31;;;6.81;78.27
71697;BME280;68167;59.120;37.898;2023-10-13T05:34:02;97931.28;;;6.86;78.37
71697;BME280;68167;59.120;37.898;2023-10-13T05:36:48;97856.56;;;6.47;78.42
71697;BME280;68167;59.120;37.898;2023-10-13T05:39:33;97923.81;;;6.93;77.92
71697;BME280;68167;59.120;37.898;2023-10-13T05:42:17;97957.66;;;6.97;78.56
71697;BME280;68167;59.120;37.898;2023-10-13T05:45:03;97923.13;;;6.83;78.63
71697;BME280;68167;59.120;37.898;2023-10-13T05:47:45;97943.91;;;6.94;78.17
71697;BME280;68167;59.120;37.898;2023-10-13T05:50:12;97954.22;;;6.96;78.15
71697;BME280;68167;59.120;37.898;2023-10-13T05:52:49;97964.25;;;6.99;78.40
71697;BME280;68167;59.120;37.898;2023-10-13T05:55:31;97949.94;;;7.00;78.29
71697;BME280;68167;59.120;37.898;2023-10-13T05:58:16;98000.63;;;7.12;77.69
71697;BME280;68167;59.120;37.898;2023-10-13T06:01:01;97973.44;;;7.07;77.31
71697;BME280;68167;59.120;37.898;2023-10-13T06:03:45;98007.94;;;7.20;77.45
71697;BME280;68167;59.120;37.898;2023-10-13T06:06:30;97975.66;;;6.94;77.83
71697;BME280;68167;59.120;37.898;2023-10-13T06:09:15;97993.22;;;7.14;77.22
71697;BME280;68167;59.120;37.898;2023-10-13T06:12:00;98003.00;;;7.14;77.86
71697;BME280;68167;59.120;37.898;2023-10-13T06:14:46;97967.16;;;6.98;76.93
71697;BME280;68167;59.120;37.898;2023-10-13T06:17:32;98076.44;;;7.27;76.45
71697;BME280;68167;59.120;37.898;2023-10-13T06:20:17;98022.72;;;7.26;76.56
71697;BME280;68167;59.120;37.898;2023-10-13T06:23:02;97985.84;;;7.11;76.06
71697;BME280;68167;59.120;37.898;2023-10-13T06:25:51;98063.78;;;7.53;75.96
71697;BME280;68167;59.120;37.898;2023-10-13T06:28:36;98047.94;;;7.48;75.84
71697;BME280;68167;59.120;37.898;2023-10-13T06:31:11;98028.91;;;7.46;75.40
71697;BME280;68167;59.120;37.898;2023-10-13T06:33:52;98060.53;;;7.61;75.39
71697;BME280;68167;59.120;37.898;2023-10-13T06:36:21;98047.41;;;7.46;75.05
71697;BME280;68167;59.120;37.898;2023-10-13T06:38:48;98086.22;;;7.60;75.03
71697;BME280;68167;59.120;37.898;2023-10-13T06:41:21;98041.44;;;7.35;75.08
71697;BME280;68167;59.120;37.898;2023-10-13T06:43:56;98104.56;;;7.52;74.91
71697;BME280;68167;59.120;37.898;2023-10-13T06:46:26;98090.25;;;7.53;75.31
71697;BME280;68167;59.120;37.898;2023-10-13T06:48:54;98106.66;;;7.55;75.37
71697;BME280;68167;59.120;37.898;2023-10-13T06:51:21;98125.72;;;7.52;76.05
71697;BME280;68167;59.120;37.898;2023-10-13T06:53:48;98105.66;;;7.46;75.64
71697;BME280;68167;59.120;37.898;2023-10-13T06:56:15;98111.69;;;7.51;75.55
71697;BME280;68167;59.120;37.898;2023-10-13T06:58:54;98135.00;;;7.49;75.41
71697;BME280;68167;59.120;37.898;2023-10-13T07:01:31;98110.56;;;7.28;75.36
71697;BME280;68167;59.120;37.898;2023-10-13T07:04:08;98146.41;;;7.50;76.05
71697;BME280;68167;59.120;37.898;2023-10-13T07:06:42;98148.81;;;7.07;75.81
71697;BME280;68167;59.120;37.898;2023-10-13T07:09:16;98141.19;;;7.01;77.10
71697;BME280;68167;59.120;37.898;2023-10-13T07:12:06;98148.38;;;6.90;77.60
71697;BME280;68167;59.120;37.898;2023-10-13T07:14:33;98186.44;;;6.99;77.42
71697;BME280;68167;59.120;37.898;2023-10-13T07:17:05;98181.16;;;6.94;77.52
71697;BME280;68167;59.120;37.898;2023-10-13T07:19:35;98155.34;;;6.71;77.99
71697;BME280;68167;59.120;37.898;2023-10-13T07:22:11;98158.00;;;6.71;78.09
71697;BME280;68167;59.120;37.898;2023-10-13T07:24:48;98131.38;;;6.52;78.21
71697;BME280;68167;59.120;37.898;2023-10-13T07:27:21;98217.91;;;7.01;78.33
71697;BME280;68167;59.120;37.898;2023-10-13T07:29:55;98168.56;;;6.71;77.76
71697;BME280;68167;59.120;37.898;2023-10-13T07:32:41;98183.91;;;6.74;77.83
71697;BME280;68167;59.120;37.898;2023-10-13T07:35:23;98162.59;;;6.50;78.31
71697;BME280;68167;59.120;37.898;2023-10-13T07:37:57;98201.06;;;6.81;77.78
71697;BME280;68167;59.120;37.898;2023-10-13T07:40:25;98213.19;;;6.92;77.55
71697;BME280;68167;59.120;37.898;2023-10-13T07:42:53;98236.91;;;7.13;78.00
71697;BME280;68167;59.120;37.898;2023-10-13T07:45:27;98229.69;;;7.18;76.95
71697;BME280;68167;59.120;37.898;2023-10-13T07:48:11;98236.56;;;7.24;76.22
71697;BME280;68167;59.120;37.898;2023-10-13T07:50:57;98233.06;;;7.34;75.35
71697;BME280;68167;59.120;37.898;2023-10-13T07:53:27;98223.28;;;7.30;75.15
71697;BME280;68167;59.120;37.898;2023-10-13T07:56:01;98250.41;;;7.55;74.88
71697;BME280;68167;59.120;37.898;2023-10-13T07:58:53;98259.88;;;7.67;74.27
71697;BME280;68167;59.120;37.898;2023-10-13T08:01:27;98266.75;;;7.68;73.84
71697;BME280;68167;59.120;37.898;2023-10-13T08:03:54;98281.53;;;7.74;74.34
71697;BME280;68167;59.120;37.898;2023-10-13T08:06:32;98265.38;;;7.75;73.60
71697;BME280;68167;59.120;37.898;2023-10-13T08:09:00;98201.75;;;7.46;74.26
71697;BME280;68167;59.120;37.898;2023-10-13T08:11:55;98213.13;;;7.47;73.58
71697;BME280;68167;59.120;37.898;2023-10-13T08:14:22;98276.28;;;8.03;73.49
71697;BME280;68167;59.120;37.898;2023-10-13T08:16:48;98293.41;;;8.15;73.18
71697;BME280;68167;59.120;37.898;2023-10-13T08:19:26;98286.00;;;8.12;73.05
71697;BME280;68167;59.120;37.898;2023-10-13T08:21:57;98305.56;;;8.21;72.61
71697;BME280;68167;59.120;37.898;2023-10-13T08:24:26;98307.59;;;8.30;72.05
71697;BME280;68167;59.120;37.898;2023-10-13T08:27:18;98311.31;;;8.29;71.83
71697;BME280;68167;59.120;37.898;2023-10-13T08:30:01;98304.22;;;8.24;71.90
71697;BME280;68167;59.120;37.898;2023-10-13T08:32:32;98348.16;;;8.30;71.77
71697;BME280;68167;59.120;37.898;2023-10-13T08:34:59;98318.50;;;8.28;71.27
71697;BME280;68167;59.120;37.898;2023-10-13T08:37:36;98332.25;;;8.35;71.52
71697;BME280;68167;59.120;37.898;2023-10-13T08:40:14;98343.66;;;8.31;70.87
71697;BME280;68167;59.120;37.898;2023-10-13T08:43:06;98307.81;;;8.04;70.72
71697;BME280;68167;59.120;37.898;2023-10-13T08:45:39;98402.50;;;8.38;71.43
71697;BME280;68167;59.120;37.898;2023-10-13T08:48:07;98350.53;;;8.37;70.96
71697;BME280;68167;59.120;37.898;2023-10-13T08:53:16;98363.28;;;8.64;69.72
71697;BME280;68167;59.120;37.898;2023-10-13T08:56:06;98385.22;;;8.74;69.70
71697;BME280;68167;59.120;37.898;2023-10-13T08:58:59;98311.00;;;8.40;68.88
71697;BME280;68167;59.120;37.898;2023-10-13T09:01:26;98378.81;;;8.75;68.79
71697;BME280;68167;59.120;37.898;2023-10-13T09:04:18;98371.19;;;8.69;68.60
71697;BME280;68167;59.120;37.898;2023-10-13T09:07:05;98373.34;;;8.67;69.30
71697;BME280;68167;59.120;37.898;2023-10-13T09:09:43;98369.34;;;8.69;68.13
71697;BME280;68167;59.120;37.898;2023-10-13T09:12:23;98323.63;;;8.48;68.30
71697;BME280;68167;59.120;37.898;2023-10-13T09:15:09;98397.28;;;8.90;69.17
71697;BME280;68167;59.120;37.898;2023-10-13T09:17:50;98378.63;;;8.67;70.12
71697;BME280;68167;59.120;37.898;2023-10-13T09:20:17;98410.56;;;8.85;69.01
71697;BME280;68167;59.120;37.898;2023-10-13T09:22:52;98421.47;;;8.84;68.60
71697;BME280;68167;59.120;37.898;2023-10-13T09:25:32;98370.91;;;8.41;69.62
71697;BME280;68167;59.120;37.898;2023-10-13T09:28:13;98403.94;;;8.54;68.52
71697;BME280;68167;59.120;37.898;2023-10-13T09:30:45;98453.38;;;8.74;68.08
71697;BME280;68167;59.120;37.898;2023-10-13T09:33:13;98379.19;;;8.30;68.54
71697;BME280;68167;59.120;37.898;2023-10-13T09:35:45;98449.69;;;8.70;69.03
71697;BME280;68167;59.120;37.898;2023-10-13T09:38:18;98476.94;;;8.80;67.87
71697;BME280;68167;59.120;37.898;2023-10-13T09:40:45;98411.66;;;8.50;67.84
71697;BME280;68167;59.120;37.898;2023-10-13T09:43:24;98398.22;;;8.42;68.58
71697;BME280;68167;59.120;37.898;2023-10-13T09:45:59;98410.13;;;8.44;68.34
71697;BME280;68167;59.120;37.898;2023-10-13T09:48:37;98483.25;;;8.89;68.47
71697;BME280;68167;59.120;37.898;2023-10-13T09:51:12;98447.31;;;8.68;67.56
71697;BME280;68167;59.120;37.898;2023-10-13T09:53:48;98460.78;;;8.77;68.52
71697;BME280;68167;59.120;37.898;2023-10-13T09:56:25;98503.03;;;9.07;68.30
71697;BME280;68167;59.120;37.898;2023-10-13T09:58:58;98508.41;;;8.97;68.57
71697;BME280;68167;59.120;37.898;2023-10-13T10:01:28;98537.09;;;8.95;67.45
71697;BME280;68167;59.120;37.898;2023-10-13T10:04:09;98513.28;;;8.85;67.96
71697;BME280;68167;59.120;37.898;2023-10-13T10:06:38;98496.72;;;8.59;66.77
71697;BME280;68167;59.120;37.898;2023-10-13T10:09:12;98518.63;;;8.80;66.69
71697;BME280;68167;59.120;37.898;2023-10-13T10:17:14;98489.16;;;8.42;66.84
71697;BME280;68167;59.120;37.898;2023-10-13T10:19:52;98555.75;;;8.80;66.82
71697;BME280;68167;59.120;37.898;2023-10-13T10:22:30;98553.09;;;8.80;66.12
71697;BME280;68167;59.120;37.898;2023-10-13T10:25:03;98557.06;;;8.82;65.85
71697;BME280;68167;59.120;37.898;2023-10-13T10:27:33;98542.03;;;8.68;65.62
71697;BME280;68167;59.120;37.898;2023-10-13T10:30:00;98588.81;;;8.98;65.99
71697;BME280;68167;59.120;37.898;2023-10-13T10:32:38;98534.88;;;8.68;65.32
71697;BME280;68167;59.120;37.898;2023-10-13T10:35:10;98555.53;;;8.71;65.61
71697;BME280;68167;59.120;37.898;2023-10-13T10:37:47;98582.53;;;8.83;66.11
71697;BME280;68167;59.120;37.898;2023-10-13T10:40:17;98591.78;;;8.91;64.42
71697;BME280;68167;59.120;37.898;2023-10-13T10:43:02;98632.06;;;8.98;64.05
71697;BME280;68167;59.120;37.898;2023-10-13T10:45:38;98608.75;;;8.95;63.99
71697;BME280;68167;59.120;37.898;2023-10-13T10:48:12;98595.56;;;8.80;64.75
71697;BME280;68167;59.120;37.898;2023-10-13T10:50:51;98625.91;;;9.08;64.38
71697;BME280;68167;59.120;37.898;2023-10-13T10:53:24;98623.91;;;9.29;64.14
71697;BME280;68167;59.120;37.898;2023-10-13T10:56:13;98640.13;;;9.61;63.52
71697;BME280;68167;59.120;37.898;2023-10-13T10:58:47;98650.97;;;9.94;62.39
71697;BME280;68167;59.120;37.898;2023-10-13T11:01:15;98634.25;;;9.93;62.30
71697;BME280;68167;59.120;37.898;2023-10-13T11:03:58;98665.44;;;10.11;63.68
71697;BME280;68167;59.120;37.898;2023-10-13T11:06:26;98659.94;;;10.03;62.60
71697;BME280;68167;59.120;37.898;2023-10-13T11:09:06;98645.34;;;9.71;64.47
71697;BME280;68167;59.120;37.898;2023-10-13T11:11:48;98650.03;;;9.79;62.27
71697;BME280;68167;59.120;37.898;2023-10-13T11:14:27;98673.09;;;9.89;62.51
71697;BME280;68167;59.120;37.898;2023-10-13T11:16:56;98655.47;;;9.69;61.97
71697;BME280;68167;59.120;37.898;2023-10-13T11:19:41;98691.41;;;9.90;60.25
71697;BME280;68167;59.120;37.898;2023-10-13T11:24:41;98684.72;;;10.27;60.28
71697;BME280;68167;59.120;37.898;2023-10-13T11:27:17;98687.91;;;10.29;60.74
71697;BME280;68167;59.120;37.898;2023-10-13T11:30:03;98671.47;;;10.22;60.67
71697;BME280;68167;59.120;37.898;2023-10-13T11:32:32;98677.59;;;10.22;60.73
71697;BME280;68167;59.120;37.898;2023-10-13T11:34:59;98678.66;;;10.21;60.10
71697;BME280;68167;59.120;37.898;2023-10-13T11:37:25;98702.47;;;10.37;60.59
71697;BME280;68167;59.120;37.898;2023-10-13T11:40:04;98735.44;;;10.36;58.35
71697;BME280;68167;59.120;37.898;2023-10-13T11:42:39;98674.53;;;10.05;59.57
71697;BME280;68167;59.120;37.898;2023-10-13T11:45:10;98715.19;;;10.40;58.59
71697;BME280;68167;59.120;37.898;2023-10-13T11:47:57;98728.94;;;10.71;58.95
71697;BME280;68167;59.120;37.898;2023-10-13T11:50:31;98739.66;;;10.89;58.94
71697;BME280;68167;59.120;37.898;2023-10-13T11:53:01;98760.19;;;11.08;58.53
71697;BME280;68167;59.120;37.898;2023-10-13T11:55:27;98754.66;;;11.23;57.28
71697;BME280;68167;59.120;37.898;2023-10-13T11:57:54;98806.03;;;11.29;56.37
71697;BME280;68167;59.120;37.898;2023-10-13T12:00:25;98707.19;;;10.87;55.84
71697;BME280;68167;59.120;37.898;2023-10-13T12:03:10;98744.25;;;10.84;55.46
71697;BME280;68167;59.120;37.898;2023-10-13T12:05:54;98755.84;;;10.93;55.98
71697;BME280;68167;59.120;37.898;2023-10-13T12:08:39;98782.28;;;11.08;54.83
71697;BME280;68167;59.120;37.898;2023-10-13T12:11:15;98763.00;;;11.16;55.46
71697;BME280;68167;59.120;37.898;2023-10-13T12:13:57;98785.47;;;10.86;56.29
71697;BME280;68167;59.120;37.898;2023-10-13T12:16:24;98785.84;;;10.51;56.85
71697;BME280;68167;59.120;37.898;2023-10-13T12:19:00;98791.31;;;10.36;55.86
71697;BME280;68167;59.120;37.898;2023-10-13T12:21:27;98757.81;;;9.96;55.99
71697;BME280;68167;59.120;37.898;2023-10-13T12:23:55;98757.16;;;10.14;56.03
71697;BME280;68167;59.120;37.898;2023-10-13T12:26:21;98758.38;;;10.32;55.99
71697;BME280;68167;59.120;37.898;2023-10-13T12:28:59;98787.03;;;10.64;55.06
71697;BME280;68167;59.120;37.898;2023-10-13T12:31:33;98768.88;;;10.42;55.55
71697;BME280;68167;59.120;37.898;2023-10-13T12:34:05;98804.47;;;10.51;56.07
71697;BME280;68167;59.120;37.898;2023-10-13T12:36:45;98791.88;;;10.33;55.87
71697;BME280;68167;59.120;37.898;2023-10-13T12:39:19;98809.66;;;10.37;55.50
71697;BME280;68167;59.120;37.898;2023-10-13T12:42:04;98783.78;;;10.09;55.63
71697;BME280;68167;59.120;37.898;2023-10-13T12:44:49;98760.31;;;9.82;56.33
71697;BME280;68167;59.120;37.898;2023-10-13T12:47:33;98818.03;;;10.15;56.84
71697;BME280;68167;59.120;37.898;2023-10-13T12:50:18;98835.53;;;10.27;56.56
71697;BME280;68167;59.120;37.898;2023-10-13T12:53:09;98820.06;;;10.34;56.32
71697;BME280;68167;59.120;37.898;2023-10-13T12:55:40;98820.19;;;10.47;56.74
71697;BME280;68167;59.120;37.898;2023-10-13T12:58:06;98820.16;;;10.52;56.42
71697;BME280;68167;59.120;37.898;2023-10-13T13:00:33;98854.25;;;10.45;56.52
71697;BME280;68167;59.120;37.898;2023-10-13T13:02:59;98856.00;;;10.31;56.29
71697;BME280;68167;59.120;37.898;2023-10-13T13:05:26;98835.59;;;10.21;56.15
71697;BME280;68167;59.120;37.898;2023-10-13T13:07:55;98869.88;;;10.18;56.33
71697;BME280;68167;59.120;37.898;2023-10-13T13:10:22;98874.38;;;10.28;55.82
71697;BME280;68167;59.120;37.898;2023-10-13T13:13:02;98864.03;;;10.21;55.75
71697;BME280;68167;59.120;37.898;2023-10-13T13:15:29;98840.91;;;10.16;55.90
71697;BME280;68167;59.120;37.898;2023-10-13T13:17:56;98816.09;;;10.31;54.78
71697;BME280;68167;59.120;37.898;2023-10-13T13:20:24;98878.88;;;10.61;54.42
71697;BME280;68167;59.120;37.898;2023-10-13T13:22:57;98867.91;;;10.68;54.72
71697;BME280;68167;59.120;37.898;2023-10-13T13:25:28;98848.84;;;10.55;54.89
71697;BME280;68167;59.120;37.898;2023-10-13T13:27:57;98858.72;;;10.84;54.39
71697;BME280;68167;59.120;37.898;2023-10-13T13:30:27;98891.38;;;11.18;53.80
71697;BME280;68167;59.120;37.898;2023-10-13T13:32:59;98854.84;;;11.00;53.88
71697;BME280;68167;59.120;37.898;2023-10-13T13:35:30;98878.63;;;11.15;53.38
71697;BME280;68167;59.120;37.898;2023-10-13T13:38:02;98919.19;;;11.07;53.49
71697;BME280;68167;59.120;37.898;2023-10-13T13:40:51;98873.63;;;10.51;54.29
71697;BME280;68167;59.120;37.898;2023-10-13T13:43:21;98926.34;;;10.49;54.11
71697;BME280;68167;59.120;37.898;2023-10-13T13:46:07;98921.94;;;10.34;55.11
71697;BME280;68167;59.120;37.898;2023-10-13T13:48:37;98928.41;;;10.13;54.83
71697;BME280;68167;59.120;37.898;2023-10-13T13:51:08;98888.50;;;9.74;55.40
71697;BME280;68167;59.120;37.898;2023-10-13T13:53:41;98910.56;;;9.69;55.88